createdAt,value
2023-05-21T00:02:01.456Z,94.4
2023-05-21T00:06:53.651Z,94.6
2023-05-21T00:09:18.759Z,94.7
2023-05-21T00:11:44.863Z,95
2023-05-21T00:14:10.953Z,94.8
2023-05-21T00:16:37.047Z,94.9
2023-05-21T00:19:03.142Z,94.8
2023-05-21T00:21:29.236Z,94.9
2023-05-21T00:23:55.329Z,95
2023-05-21T00:28:47.575Z,95.5
2023-05-21T00:31:13.637Z,95.7
2023-05-21T00:33:39.722Z,95.5
2023-05-21T00:36:05.819Z,95.6
2023-05-21T00:38:31.906Z,95.8
2023-05-21T00:40:57.009Z,95.8
2023-05-21T00:43:23.124Z,96
2023-05-21T00:45:49.218Z,96
2023-05-21T00:48:15.289Z,96.4
2023-05-21T00:50:41.389Z,96.3
2023-05-21T00:53:07.501Z,96.3
2023-05-21T00:55:33.593Z,96.3
2023-05-21T00:57:59.686Z,96.2
2023-05-21T01:00:25.775Z,96.2
2023-05-21T01:02:51.873Z,96.2
2023-05-21T01:05:17.957Z,96.4
2023-05-21T01:07:44.061Z,96.3
2023-05-21T01:10:10.149Z,96.4
2023-05-21T01:12:35.261Z,96.5
2023-05-21T01:15:01.370Z,96.5
2023-05-21T01:17:27.472Z,96.8
2023-05-21T01:19:53.561Z,97
2023-05-21T01:22:19.659Z,96.8
2023-05-21T01:24:45.745Z,96.6
2023-05-21T01:27:11.837Z,96.8
2023-05-21T01:29:37.945Z,96.9
2023-05-21T01:32:04.052Z,97
2023-05-21T01:34:30.137Z,97
2023-05-21T01:36:56.250Z,97.1
2023-05-21T01:39:22.316Z,97.3
2023-05-21T01:41:48.418Z,97.3
2023-05-21T01:44:13.543Z,97.3
2023-05-21T01:46:39.656Z,97.4
2023-05-21T01:49:05.733Z,97.7
2023-05-21T01:51:31.823Z,97.9
2023-05-21T01:53:57.910Z,97.9
2023-05-21T01:56:24.007Z,98.2
2023-05-21T01:58:50.203Z,98.1
2023-05-21T02:01:16.203Z,98
2023-05-21T02:03:42.316Z,98
2023-05-21T02:06:08.404Z,98.3
2023-05-21T02:08:34.476Z,98.7
2023-05-21T02:11:00.598Z,98.7
2023-05-21T02:13:26.705Z,98.7
2023-05-21T02:15:51.796Z,99
2023-05-21T02:18:17.892Z,99.1
2023-05-21T02:20:43.974Z,99.1
2023-05-21T02:23:10.089Z,99
2023-05-21T02:25:36.369Z,99
2023-05-21T02:28:01.368Z,99.1
2023-05-21T02:30:27.386Z,99.2
2023-05-21T02:32:53.470Z,99.4
2023-05-21T02:35:19.579Z,99.6
2023-05-21T02:37:45.672Z,99.7
2023-05-21T02:40:11.780Z,99.8
2023-05-21T02:42:37.875Z,99.9
2023-05-21T02:45:03.947Z,100
2023-05-21T02:47:30.045Z,100
2023-05-21T02:49:56.136Z,100
2023-05-21T02:52:22.231Z,100
2023-05-21T02:54:48.333Z,100
2023-05-21T02:57:14.434Z,100
2023-05-21T02:59:39.542Z,100
2023-05-21T03:02:05.632Z,100
2023-05-21T03:04:31.729Z,100
2023-05-21T03:06:57.823Z,100
2023-05-21T03:09:23.916Z,100
2023-05-21T03:11:50.033Z,100
2023-05-21T03:14:16.118Z,100
2023-05-21T03:16:42.200Z,100
2023-05-21T03:19:08.309Z,100
2023-05-21T03:21:34.403Z,100
2023-05-21T03:24:00.486Z,100
2023-05-21T03:26:26.578Z,100
2023-05-21T03:28:52.673Z,100
2023-05-21T03:31:17.809Z,100
2023-05-21T03:33:43.892Z,100
2023-05-21T03:36:09.965Z,100
2023-05-21T03:38:36.066Z,100
2023-05-21T03:41:02.171Z,100
2023-05-21T03:43:28.259Z,100
2023-05-21T03:45:54.368Z,100
2023-05-21T03:48:20.445Z,100
2023-05-21T03:50:46.540Z,100
2023-05-21T03:53:12.629Z,100
2023-05-21T03:55:38.740Z,100
2023-05-21T03:58:04.832Z,100
2023-05-21T04:00:30.937Z,100
2023-05-21T04:02:57.035Z,100
2023-05-21T04:05:23.110Z,100
2023-05-21T04:07:49.223Z,100
2023-05-21T04:10:15.305Z,100
2023-05-21T04:12:41.409Z,100
2023-05-21T04:15:07.506Z,100
2023-05-21T04:17:33.599Z,100
2023-05-21T04:19:58.706Z,100
2023-05-21T04:22:24.807Z,100
2023-05-21T04:24:50.896Z,100
2023-05-21T04:27:16.995Z,100
2023-05-21T04:29:43.079Z,100
2023-05-21T04:32:09.184Z,100
2023-05-21T04:34:35.278Z,100
2023-05-21T04:37:01.369Z,100
2023-05-21T04:39:27.456Z,100
2023-05-21T04:41:53.557Z,100
2023-05-21T04:44:19.653Z,100
2023-05-21T04:46:45.758Z,100
2023-05-21T04:49:11.848Z,100
2023-05-21T04:51:36.947Z,100
2023-05-21T04:54:03.051Z,100
2023-05-21T04:56:29.136Z,100
2023-05-21T04:58:55.237Z,100
2023-05-21T05:01:21.333Z,100
2023-05-21T05:03:47.422Z,100
2023-05-21T05:06:13.535Z,99.9
2023-05-21T05:08:39.623Z,99.7
2023-05-21T05:11:05.709Z,99.5
2023-05-21T05:13:31.789Z,99.4
2023-05-21T05:15:57.902Z,99.1
2023-05-21T05:18:23.996Z,98.5
2023-05-21T05:20:50.080Z,98.6
2023-05-21T05:23:15.213Z,98.5
2023-05-21T05:25:41.306Z,98.1
2023-05-21T05:28:07.393Z,98.1
2023-05-21T05:30:33.541Z,98.3
2023-05-21T05:32:59.581Z,98.3
2023-05-21T05:35:25.669Z,98
2023-05-21T05:37:51.772Z,97.6
2023-05-21T05:40:17.852Z,97.4
2023-05-21T05:42:43.954Z,96.6
2023-05-21T05:45:10.054Z,95.7
2023-05-21T05:47:36.133Z,95.3
2023-05-21T05:50:02.315Z,94.7
2023-05-21T05:52:28.339Z,94.3
2023-05-21T05:54:53.446Z,94.1
2023-05-21T05:57:19.549Z,93.8
2023-05-21T05:59:45.648Z,93.8
2023-05-21T06:02:11.747Z,93.9
2023-05-21T06:04:37.827Z,93.4
2023-05-21T06:07:03.945Z,93.2
2023-05-21T06:09:30.021Z,92.6
2023-05-21T06:11:56.150Z,93.1
2023-05-21T06:14:22.212Z,91.9
2023-05-21T06:16:48.296Z,92
2023-05-21T06:19:14.405Z,91.1
2023-05-21T06:21:40.497Z,91.2
2023-05-21T06:24:06.600Z,90.6
2023-05-21T06:26:32.700Z,91.2
2023-05-21T06:28:57.783Z,90.7
2023-05-21T06:31:23.897Z,90.8
2023-05-21T06:33:49.992Z,90.2
2023-05-21T06:36:16.078Z,89
2023-05-21T06:38:42.169Z,88.7
2023-05-21T06:41:08.259Z,88.7
2023-05-21T06:43:34.356Z,88.1
2023-05-21T06:46:00.449Z,88.5
2023-05-21T06:48:26.535Z,87.6
2023-05-21T06:50:52.638Z,86.7
2023-05-21T06:53:19.949Z,85
2023-05-21T06:55:44.875Z,85.4
2023-05-21T06:58:10.937Z,85.1
2023-05-21T07:00:37.017Z,85.3
2023-05-21T07:03:03.112Z,84
2023-05-21T07:05:29.218Z,83.4
2023-05-21T07:07:55.287Z,84.1
2023-05-21T07:10:21.393Z,84
2023-05-21T07:12:47.489Z,84.3
2023-05-21T07:15:13.578Z,83.6
2023-05-21T07:17:38.692Z,83.1
2023-05-21T07:20:04.842Z,82.6
2023-05-21T07:22:30.887Z,82
2023-05-21T07:24:56.977Z,81.7
2023-05-21T07:27:23.064Z,81.1
2023-05-21T07:29:49.193Z,80.5
2023-05-21T07:32:15.267Z,81
2023-05-21T07:34:41.365Z,79.9
2023-05-21T07:37:07.448Z,79.6
2023-05-21T07:39:33.553Z,79
2023-05-21T07:41:59.635Z,78.7
2023-05-21T07:44:25.744Z,78.5
2023-05-21T07:46:51.832Z,76.7
2023-05-21T07:49:16.934Z,76.3
2023-05-21T07:51:43.044Z,74.7
2023-05-21T07:54:09.125Z,74.4
2023-05-21T07:56:35.223Z,74.7
2023-05-21T07:59:01.324Z,74.7
2023-05-21T08:01:27.417Z,73.8
2023-05-21T08:03:53.497Z,71.8
2023-05-21T08:06:19.598Z,71.5
2023-05-21T08:08:45.704Z,72.2
2023-05-21T08:11:11.827Z,71
2023-05-21T08:13:37.896Z,70
2023-05-21T08:16:03.979Z,69.6
2023-05-21T08:18:30.080Z,69.2
2023-05-21T08:20:55.188Z,69.5
2023-05-21T08:23:21.274Z,70.3
2023-05-21T08:25:47.388Z,68.8
2023-05-21T08:28:13.521Z,69
2023-05-21T08:30:39.580Z,67.5
2023-05-21T08:33:05.669Z,67.7
2023-05-21T08:35:31.762Z,67.8
2023-05-21T08:37:57.853Z,67.4
2023-05-21T08:40:23.956Z,67.7
2023-05-21T08:42:50.080Z,67.5
2023-05-21T08:45:16.144Z,67.6
2023-05-21T08:47:42.247Z,67
2023-05-21T08:50:08.330Z,66.4
2023-05-21T08:52:33.449Z,66.4
2023-05-21T08:54:59.532Z,65.5
2023-05-21T08:57:25.642Z,64.4
2023-05-21T08:59:51.736Z,64.8
2023-05-21T09:02:17.824Z,64.9
2023-05-21T09:04:44.071Z,64
2023-05-21T09:07:10.005Z,64.3
2023-05-21T09:09:36.104Z,64.1
2023-05-21T09:12:02.410Z,63.5
2023-05-21T09:14:28.309Z,64.1
2023-05-21T09:16:54.399Z,62.3
2023-05-21T09:19:20.479Z,61.5
2023-05-21T09:21:46.584Z,61.5
2023-05-21T09:24:11.707Z,61.7
2023-05-21T09:26:37.882Z,62.1
2023-05-21T09:29:03.880Z,61.1
2023-05-21T09:31:29.995Z,61.4
2023-05-21T09:33:56.054Z,60.5
2023-05-21T09:36:22.506Z,60.4
2023-05-21T09:38:48.275Z,59.8
2023-05-21T09:41:14.351Z,60.5
2023-05-21T09:43:40.449Z,60.8
2023-05-21T09:46:06.619Z,60.9
2023-05-21T09:48:32.635Z,59.9
2023-05-21T09:50:58.741Z,60.6
2023-05-21T09:53:24.844Z,59.6
2023-05-21T09:55:50.020Z,59.2
2023-05-21T09:58:16.060Z,59.1
2023-05-21T10:00:42.121Z,58.9
2023-05-21T10:03:08.218Z,59.1
2023-05-21T10:05:34.314Z,59.3
2023-05-21T10:08:00.409Z,58.7
2023-05-21T10:10:26.577Z,58.4
2023-05-21T10:12:52.611Z,57.9
2023-05-21T10:15:18.740Z,58.6
2023-05-21T10:17:44.864Z,58.3
2023-05-21T10:20:10.894Z,58.1
2023-05-21T10:22:36.999Z,57.9
2023-05-21T10:25:03.066Z,56.1
2023-05-21T10:27:29.198Z,56.1
2023-05-21T10:29:54.289Z,55.5
2023-05-21T10:32:20.469Z,55.5
2023-05-21T10:34:46.532Z,55.2
2023-05-21T10:37:11.688Z,55.1
2023-05-21T10:39:37.740Z,55
2023-05-21T10:42:03.786Z,54.5
2023-05-21T10:44:29.992Z,55.1
2023-05-21T10:46:55.959Z,54.8
2023-05-21T10:49:22.098Z,55.1
2023-05-21T10:51:48.150Z,55.4
2023-05-21T10:54:14.252Z,53.4
2023-05-21T10:56:40.349Z,53.9
2023-05-21T10:59:06.484Z,51.5
2023-05-21T11:01:32.562Z,52.5
2023-05-21T11:03:58.623Z,53
2023-05-21T11:06:24.715Z,52.6
2023-05-21T11:08:49.835Z,53.3
2023-05-21T11:11:15.918Z,52.3
2023-05-21T11:13:42.039Z,53.2
2023-05-21T11:16:08.116Z,53
2023-05-21T11:18:34.211Z,51
2023-05-21T11:21:00.298Z,52.2
2023-05-21T11:23:26.409Z,50.5
2023-05-21T11:25:52.501Z,51.2
2023-05-21T11:28:18.589Z,49.9
2023-05-21T11:30:44.686Z,51.3
2023-05-21T11:33:10.789Z,51.9
2023-05-21T11:35:36.863Z,51.3
2023-05-21T11:38:02.966Z,52.7
2023-05-21T11:40:28.095Z,51.3
2023-05-21T11:42:54.185Z,50.5
2023-05-21T11:45:20.280Z,52.7
2023-05-21T11:47:46.365Z,52.7
2023-05-21T11:50:12.464Z,53.5
2023-05-21T11:52:38.572Z,52.9
2023-05-21T11:55:04.638Z,52.8
2023-05-21T11:57:30.747Z,53.6
2023-05-21T11:59:56.838Z,53.5
2023-05-21T12:02:22.948Z,52.9
2023-05-21T12:04:49.037Z,52.8
2023-05-21T12:07:15.137Z,53.4
2023-05-21T12:09:41.235Z,53
2023-05-21T12:12:06.334Z,52.4
2023-05-21T12:14:32.433Z,51.7
2023-05-21T12:16:58.542Z,51.8
2023-05-21T12:19:24.630Z,51.3
2023-05-21T12:21:50.707Z,51.8
2023-05-21T12:24:16.806Z,51.9
2023-05-21T12:29:09.000Z,50.2
2023-05-21T12:31:35.082Z,50.4
2023-05-21T12:34:01.186Z,50.1
2023-05-21T12:36:27.310Z,48.2
2023-05-21T12:38:53.400Z,48.8
2023-05-21T12:41:19.473Z,48.7
2023-05-21T12:43:44.594Z,48
2023-05-21T12:46:10.743Z,48.7
2023-05-21T12:48:36.832Z,50.5
2023-05-21T12:51:02.870Z,49.4
2023-05-21T12:53:28.962Z,49.1
2023-05-21T12:55:55.058Z,48.4
2023-05-21T12:58:21.149Z,47.6
2023-05-21T13:00:47.329Z,46.2
2023-05-21T13:03:13.359Z,48
2023-05-21T13:05:39.447Z,48.4
2023-05-21T13:08:05.537Z,48.5
2023-05-21T13:10:31.635Z,49.3
2023-05-21T13:12:57.724Z,49
2023-05-21T13:15:22.846Z,49.9
2023-05-21T13:17:48.949Z,50.2
2023-05-21T13:20:15.038Z,49.1
2023-05-21T13:22:41.123Z,49.5
2023-05-21T13:25:07.237Z,48.9
2023-05-21T13:27:33.321Z,50.1
2023-05-21T13:29:59.436Z,48.9
2023-05-21T13:32:25.509Z,48.9
2023-05-21T13:34:51.606Z,50.5
2023-05-21T13:37:17.698Z,49.6
2023-05-21T13:39:43.788Z,51.1
2023-05-21T13:42:09.910Z,50.5
2023-05-21T13:44:35.993Z,50.6
2023-05-21T13:47:01.084Z,49.6
2023-05-21T13:49:27.201Z,49.9
2023-05-21T13:51:53.275Z,49.9
2023-05-21T13:54:19.376Z,50.5
2023-05-21T13:56:45.462Z,50.9
2023-05-21T13:59:11.573Z,51.6
2023-05-21T14:01:37.644Z,51.9
2023-05-21T14:04:03.770Z,49.9
2023-05-21T14:06:29.856Z,52.9
2023-05-21T14:08:55.929Z,49.7
2023-05-21T14:11:22.035Z,53
2023-05-21T14:13:48.118Z,52.5
2023-05-21T14:16:14.243Z,53.4
2023-05-21T14:18:40.308Z,55.4
2023-05-21T14:21:06.431Z,53.2
2023-05-21T14:23:32.516Z,55.3
2023-05-21T14:25:58.622Z,50.9
2023-05-21T14:28:24.692Z,54.7
2023-05-21T14:30:50.831Z,54.6
2023-05-21T14:33:16.902Z,52.7
2023-05-21T14:35:42.997Z,53.2
2023-05-21T14:38:09.096Z,54
2023-05-21T14:40:35.173Z,52
2023-05-21T14:43:01.346Z,49
2023-05-21T14:45:27.416Z,49.4
2023-05-21T14:47:52.496Z,47.6
2023-05-21T14:50:18.590Z,47
2023-05-21T14:52:44.681Z,46.3
2023-05-21T14:55:10.763Z,47.1
2023-05-21T14:57:36.871Z,45.5
2023-05-21T15:00:02.968Z,45.3
2023-05-21T15:02:29.081Z,45.6
2023-05-21T15:04:55.153Z,45.1
2023-05-21T15:07:21.247Z,44.9
2023-05-21T15:09:47.336Z,44.5
2023-05-21T15:12:13.432Z,43.9
2023-05-21T15:14:39.521Z,44.9
2023-05-21T15:17:05.614Z,46.9
2023-05-21T15:19:30.732Z,47.6
2023-05-21T15:21:57.025Z,49.5
2023-05-21T15:24:23.118Z,49.2
2023-05-21T15:26:49.035Z,48.1
2023-05-21T15:29:15.152Z,48.9
2023-05-21T15:31:41.282Z,50.4
2023-05-21T15:34:07.327Z,49.7
2023-05-21T15:36:33.481Z,49.9
2023-05-21T15:38:59.519Z,50.8
2023-05-21T15:41:25.622Z,50.9
2023-05-21T15:43:51.697Z,51
2023-05-21T15:46:17.794Z,50.5
2023-05-21T15:48:43.921Z,50.1
2023-05-21T15:51:08.988Z,48.6
2023-05-21T15:53:35.118Z,48.1
2023-05-21T15:56:01.210Z,48.1
2023-05-21T15:58:27.437Z,48.2
2023-05-21T16:00:53.381Z,47.9
2023-05-21T16:03:19.547Z,48
2023-05-21T16:05:45.580Z,49.9
2023-05-21T16:08:11.679Z,49.5
2023-05-21T16:10:37.782Z,48.6
2023-05-21T16:13:03.933Z,49.1
2023-05-21T16:15:30.001Z,49.7
2023-05-21T16:17:56.052Z,50.2
2023-05-21T16:20:22.137Z,50.3
2023-05-21T16:22:48.267Z,49.4
2023-05-21T16:25:14.333Z,50.1
2023-05-21T16:27:40.422Z,50.6
2023-05-21T16:30:06.559Z,51.1
2023-05-21T16:32:32.625Z,50.4
2023-05-21T16:34:58.723Z,51.7
2023-05-21T16:37:24.814Z,52.5
2023-05-21T16:39:50.900Z,52.7
2023-05-21T16:42:17.044Z,51.8
2023-05-21T16:44:43.097Z,51.4
2023-05-21T16:47:09.219Z,52
2023-05-21T16:49:35.299Z,53
2023-05-21T16:52:01.377Z,52.6
2023-05-21T16:54:27.475Z,52.3
2023-05-21T16:56:53.580Z,52.7
2023-05-21T16:59:19.667Z,53.5
2023-05-21T17:01:45.751Z,54.2
2023-05-21T17:04:11.873Z,55.6
2023-05-21T17:06:37.941Z,55.8
2023-05-21T17:09:04.076Z,55.8
2023-05-21T17:11:30.164Z,56.4
2023-05-21T17:13:55.287Z,57.4
2023-05-21T17:16:21.353Z,57.8
2023-05-21T17:18:47.519Z,57.8
2023-05-21T17:21:13.527Z,57.8
2023-05-21T17:23:39.664Z,58.7
2023-05-21T17:26:05.719Z,59.7
2023-05-21T17:28:31.850Z,59
2023-05-21T17:30:57.932Z,59.7
2023-05-21T17:33:24.025Z,60.1
2023-05-21T17:35:50.107Z,59.4
2023-05-21T17:38:16.212Z,59.6
2023-05-21T17:40:42.295Z,59.5
2023-05-21T17:43:08.392Z,61.5
2023-05-21T17:45:33.512Z,62.7
2023-05-21T17:47:59.600Z,65.6
2023-05-21T17:50:25.704Z,67.1
2023-05-21T17:52:51.810Z,68.7
2023-05-21T17:55:17.893Z,69.9
2023-05-21T17:57:43.957Z,71.2
2023-05-21T18:00:10.064Z,71.9
2023-05-21T18:02:36.263Z,73.4
2023-05-21T18:05:02.278Z,74.5
2023-05-21T18:07:28.367Z,74.4
2023-05-21T18:09:54.436Z,74.8
2023-05-21T18:12:20.551Z,75.8
2023-05-21T18:14:46.662Z,77
2023-05-21T18:17:11.751Z,77.2
2023-05-21T18:19:37.839Z,77.4
2023-05-21T18:22:03.939Z,77.3
2023-05-21T18:24:30.056Z,78.8
2023-05-21T18:26:56.140Z,78.7
2023-05-21T18:29:22.230Z,76.4
2023-05-21T18:31:48.339Z,75.8
2023-05-21T18:34:14.410Z,76.5
2023-05-21T18:36:40.605Z,76.8
2023-05-21T18:39:06.629Z,78.2
2023-05-21T18:41:57.711Z,79
2023-05-21T18:43:58.805Z,79.6
2023-05-21T18:46:24.026Z,80.1
2023-05-21T18:48:50.160Z,80.1
2023-05-21T18:51:16.312Z,81.1
2023-05-21T18:53:42.192Z,81.1
2023-05-21T18:56:08.452Z,81.2
2023-05-21T18:58:34.478Z,82
2023-05-21T19:01:00.542Z,81.8
2023-05-21T19:03:26.572Z,82.4
2023-05-21T19:05:52.652Z,82.6
2023-05-21T19:08:18.775Z,82.8
2023-05-21T19:10:44.901Z,83.3
2023-05-21T19:13:10.969Z,83.1
2023-05-21T19:15:37.066Z,82.9
2023-05-21T19:18:02.188Z,84.1
2023-05-21T19:20:28.361Z,84.2
2023-05-21T19:22:54.354Z,84.6
2023-05-21T19:25:20.472Z,85
2023-05-21T19:27:46.541Z,85.4
2023-05-21T19:30:12.631Z,86
2023-05-21T19:32:38.797Z,86.2
2023-05-21T19:35:04.889Z,86.4
2023-05-21T19:37:30.919Z,87.2
2023-05-21T19:39:57.079Z,88.1
2023-05-21T19:42:23.103Z,88.5
2023-05-21T19:44:49.203Z,89.2
2023-05-21T19:47:15.342Z,88.9
2023-05-21T19:52:06.491Z,89.7
2023-05-21T19:54:32.615Z,89.5
2023-05-21T19:56:58.680Z,89.8
2023-05-21T19:59:24.805Z,90
2023-05-21T20:01:50.925Z,90.5
2023-05-21T20:04:16.965Z,89.9
2023-05-21T20:06:43.070Z,89.8
2023-05-21T20:09:09.148Z,90.2
2023-05-21T20:11:35.253Z,90.2
2023-05-21T20:14:01.361Z,90.6
2023-05-21T20:16:27.450Z,91
2023-05-21T20:18:53.548Z,91.4
2023-05-21T20:21:18.665Z,91.5
2023-05-21T20:23:44.750Z,91.3
2023-05-21T20:26:10.862Z,91.1
2023-05-21T20:28:36.941Z,91.3
2023-05-21T20:31:03.029Z,91.6
2023-05-21T20:33:29.123Z,92
2023-05-21T20:35:55.217Z,92.1
2023-05-21T20:38:21.293Z,92.1
2023-05-21T20:40:47.404Z,92
2023-05-21T20:43:13.498Z,92
2023-05-21T20:45:39.595Z,92.6
2023-05-21T20:48:05.685Z,92.8
2023-05-21T20:50:31.834Z,92.8
2023-05-21T20:52:56.902Z,92.7
2023-05-21T20:55:22.984Z,92.9
2023-05-21T20:57:49.137Z,93.2
2023-05-21T21:00:15.196Z,93.2
2023-05-21T21:02:41.261Z,93.2
2023-05-21T21:05:07.374Z,93.4
2023-05-21T21:07:33.459Z,93.4
2023-05-21T21:09:59.554Z,93.2
2023-05-21T21:12:25.670Z,93.2
2023-05-21T21:14:51.740Z,93.4
2023-05-21T21:17:17.835Z,93.8
2023-05-21T21:19:43.939Z,94.1
2023-05-21T21:22:10.023Z,94
2023-05-21T21:24:35.131Z,94.3
2023-05-21T21:27:01.235Z,94.8
2023-05-21T21:29:27.326Z,95
2023-05-21T21:31:53.429Z,95.2
2023-05-21T21:34:19.526Z,94.9
2023-05-21T21:36:45.620Z,94.8
2023-05-21T21:39:11.721Z,94.6
2023-05-21T21:41:37.819Z,94.8
2023-05-21T21:44:03.909Z,95.2
2023-05-21T21:46:30.007Z,95.5
2023-05-21T21:48:56.186Z,95.7
2023-05-21T21:51:22.183Z,96
2023-05-21T21:53:48.292Z,96.3
2023-05-21T21:56:13.396Z,96.5
2023-05-21T21:58:39.486Z,96.5
2023-05-21T22:01:05.601Z,96.6
2023-05-21T22:03:31.686Z,96.6
2023-05-21T22:05:57.788Z,96.9
2023-05-21T22:08:23.876Z,97
2023-05-21T22:10:49.973Z,96.9
2023-05-21T22:13:16.064Z,96.7
2023-05-21T22:15:42.171Z,96.9
2023-05-21T22:18:08.256Z,97.2
2023-05-21T22:20:34.351Z,97.5
2023-05-21T22:23:00.443Z,98
2023-05-21T22:25:26.546Z,98.2
2023-05-21T22:27:51.651Z,98.1
2023-05-21T22:30:17.754Z,98.3
2023-05-21T22:32:43.843Z,98.3
2023-05-21T22:35:09.937Z,98.2
2023-05-21T22:37:36.016Z,98.3
2023-05-21T22:40:02.113Z,98.4
2023-05-21T22:42:28.227Z,98.7
2023-05-21T22:44:54.312Z,98.5
2023-05-21T22:47:20.399Z,98.4
2023-05-21T22:49:46.502Z,98.4
2023-05-21T22:52:12.600Z,98.6
2023-05-21T22:54:38.696Z,98.6
2023-05-21T22:57:04.790Z,98.7
2023-05-21T22:59:29.884Z,98.9
2023-05-21T23:01:55.988Z,98.9
2023-05-21T23:04:22.074Z,99.1
2023-05-21T23:06:48.336Z,99.4
2023-05-21T23:09:14.254Z,99.6
2023-05-21T23:11:40.450Z,99.7
2023-05-21T23:14:06.491Z,99.8
2023-05-21T23:16:32.539Z,99.7
2023-05-21T23:18:58.636Z,99.5
2023-05-21T23:21:24.739Z,99.3
2023-05-21T23:23:50.839Z,99.4
2023-05-21T23:26:16.920Z,99.6
2023-05-21T23:28:43.029Z,99.8
2023-05-21T23:31:08.173Z,100
2023-05-21T23:33:34.324Z,100
2023-05-21T23:36:00.323Z,100
2023-05-21T23:38:26.412Z,100
2023-05-21T23:40:52.513Z,100
2023-05-21T23:43:18.602Z,100
2023-05-21T23:45:44.690Z,100
2023-05-21T23:48:10.776Z,100
2023-05-21T23:50:36.895Z,100
2023-05-21T23:53:02.979Z,100
2023-05-21T23:55:29.071Z,100
2023-05-21T23:57:55.154Z,100
